Terminal Aerodrome Forecast
Issued by NWS Shreveport, LA

Home | Current Version | Previous Version | Text Only | Print | Product List | Glossary On
Versions: 1 2 3 4 5 6 7 8 9 10 11 12 13 14 15 16 17 18
434
FTUS44 KSHV 300520
TAFMLU
TAF
KMLU 300520Z 3006/3106 VRB04KT P6SM SCT040
     FM300800 19008KT P6SM BKN100
      TEMPO 3009/3013 BKN015
     FM301500 25011G18KT P6SM SKC
     FM310000 VRB02KT P6SM SKC=

USA.gov is the U.S. government's official web portal to all federal, state and local government web resources and services.